Time;durP1;ratioP1;P1;durP2;ratioP2;P2;SDS_P1;SDS_P2;PMS_P1;PMS_P2;Temp;Humidity;BMP_temperature;BMP_pressure;BME280_temperature;BME280_humidity;BME280_pressure;Samples;Min_cycle;Max_cycle;Signal;HPM_P1;HPM_P2
2023/09/04 00:01:25;;;;;;;;;;;25.00;57.40;;;;;;5053130;28;20032;-63
2023/09/04 00:03:51;;;;;;;;;;;25.00;57.50;;;;;;5041869;28;20123;-60
2023/09/04 00:06:18;;;;;;;;;;;24.90;57.40;;;;;;5053038;28;20007;-60
2023/09/04 00:08:45;;;;;;;;;;;24.90;57.40;;;;;;5034275;28;20333;-60
2023/09/04 00:11:12;;;;;;;;;;;24.90;57.40;;;;;;5036479;28;19979;-60
2023/09/04 00:13:41;;;;;;;;;;;25.00;57.50;;;;;;5044797;28;20332;-60
2023/09/04 00:16:08;;;;;;;;;;;25.00;57.50;;;;;;5029562;28;19983;-60
2023/09/04 00:18:35;;;;;;;;;;;25.00;57.50;;;;;;5013357;28;20027;-60
2023/09/04 00:21:02;;;;;;;;;;;25.00;57.40;;;;;;5051948;28;20006;-60
2023/09/04 00:23:28;;;;;;;;;;;24.90;57.40;;;;;;5045611;28;20337;-60
2023/09/04 00:25:56;;;;;;;;;;;25.00;57.40;;;;;;5032316;28;19964;-60
2023/09/04 00:28:24;;;;;;;;;;;24.90;57.30;;;;;;5045107;28;19925;-60
2023/09/04 00:30:51;;;;;;;;;;;24.90;57.30;;;;;;5052712;28;19974;-60
2023/09/04 00:33:18;;;;;;;;;;;25.00;57.30;;;;;;5052942;28;19972;-61
2023/09/04 00:35:45;;;;;;;;;;;25.00;57.30;;;;;;5045885;28;20366;-60
2023/09/04 00:38:12;;;;;;;;;;;25.00;57.30;;;;;;5043193;28;19994;-61
2023/09/04 00:40:39;;;;;;;;;;;25.00;57.30;;;;;;5032344;28;19925;-60
2023/09/04 00:43:07;;;;;;;;;;;25.00;57.30;;;;;;5041746;28;20016;-61
2023/09/04 00:45:34;;;;;;;;;;;25.00;57.30;;;;;;5052693;28;19971;-61
2023/09/04 00:48:02;;;;;;;;;;;25.00;57.20;;;;;;5037322;28;20271;-62
2023/09/04 00:50:29;;;;;;;;;;;25.00;57.20;;;;;;5028887;28;19935;-60
2023/09/04 00:52:58;;;;;;;;;;;25.00;57.20;;;;;;5044451;28;19924;-60
2023/09/04 00:55:25;;;;;;;;;;;25.00;57.20;;;;;;5067683;28;19924;-60
2023/09/04 00:57:52;;;;;;;;;;;25.00;57.20;;;;;;5048561;28;20380;-60
2023/09/04 01:00:22;;;;;;;;;;;25.00;57.20;;;;;;5056076;28;19975;-60
2023/09/04 01:02:49;;;;;;;;;;;25.00;57.20;;;;;;5055979;28;20377;-61
2023/09/04 01:05:17;;;;;;;;;;;25.00;57.30;;;;;;5044688;28;19961;-61
2023/09/04 01:07:44;;;;;;;;;;;25.00;57.30;;;;;;5054911;28;20443;-60
2023/09/04 01:10:12;;;;;;;;;;;24.90;57.30;;;;;;5044530;28;19971;-61
2023/09/04 01:12:46;;;;;;;;;;;24.90;57.30;;;;;;5070886;28;19925;-60
2023/09/04 01:15:13;;;;;;;;;;;24.90;57.30;;;;;;5060040;28;20389;-61
2023/09/04 01:17:40;;;;;;;;;;;24.90;57.30;;;;;;5055261;28;19979;-61
2023/09/04 01:20:27;;;;;;;;;;;24.90;57.50;;;;;;5073503;28;20035;-62
2023/09/04 01:22:55;;;;;;;;;;;24.90;57.40;;;;;;5044359;28;19924;-60
2023/09/04 01:25:24;;;;;;;;;;;24.90;57.40;;;;;;5066977;28;19928;-60
2023/09/04 01:27:55;;;;;;;;;;;24.90;57.40;;;;;;5070727;28;19928;-61
2023/09/04 01:30:28;;;;;;;;;;;24.90;57.40;;;;;;5055400;28;20324;-60
2023/09/04 01:33:01;;;;;;;;;;;24.90;57.40;;;;;;5055623;28;19925;-60
2023/09/04 01:35:30;;;;;;;;;;;24.90;57.40;;;;;;5055357;28;19932;-61
2023/09/04 01:37:58;;;;;;;;;;;24.90;57.40;;;;;;5055872;28;20300;-61
2023/09/04 01:40:25;;;;;;;;;;;24.90;57.40;;;;;;5055169;28;19928;-61
2023/09/04 01:42:52;;;;;;;;;;;24.90;57.40;;;;;;5055404;28;20015;-60
2023/09/04 01:45:19;;;;;;;;;;;24.90;57.40;;;;;;5068026;28;19924;-61
2023/09/04 01:47:46;;;;;;;;;;;24.90;57.40;;;;;;5072849;28;20421;-60
2023/09/04 01:50:13;;;;;;;;;;;24.90;57.40;;;;;;5055504;28;19932;-61
2023/09/04 01:52:40;;;;;;;;;;;24.90;57.40;;;;;;5055035;28;20274;-61
2023/09/04 01:55:07;;;;;;;;;;;24.90;57.40;;;;;;5054540;28;20337;-60
2023/09/04 01:57:34;;;;;;;;;;;24.90;57.40;;;;;;5055277;28;20361;-61
2023/09/04 02:00:01;;;;;;;;;;;24.90;57.40;;;;;;5055061;28;19925;-60
2023/09/04 02:02:28;;;;;;;;;;;24.90;57.40;;;;;;5053373;28;20373;-60
2023/09/04 02:04:55;;;;;;;;;;;24.90;57.40;;;;;;5054140;28;19939;-60
2023/09/04 02:07:22;;;;;;;;;;;24.90;57.40;;;;;;5053588;28;20348;-61
2023/09/04 02:09:49;;;;;;;;;;;24.90;57.40;;;;;;5054410;28;19982;-60
2023/09/04 02:12:16;;;;;;;;;;;24.90;57.40;;;;;;5054478;28;19925;-61
2023/09/04 02:14:43;;;;;;;;;;;24.90;57.50;;;;;;5054583;28;19925;-61
2023/09/04 02:17:11;;;;;;;;;;;24.90;57.40;;;;;;5055144;28;19925;-60
2023/09/04 02:19:38;;;;;;;;;;;24.90;57.40;;;;;;5052245;28;19972;-61
2023/09/04 02:22:05;;;;;;;;;;;24.90;57.40;;;;;;5054219;28;20402;-60
2023/09/04 02:24:33;;;;;;;;;;;24.90;57.40;;;;;;5054726;28;20015;-61
2023/09/04 02:27:00;;;;;;;;;;;24.80;57.40;;;;;;5054090;28;19964;-60
2023/09/04 02:29:29;;;;;;;;;;;24.90;57.40;;;;;;5054398;28;19925;-61
2023/09/04 02:31:56;;;;;;;;;;;24.90;57.40;;;;;;5042124;28;19969;-61
2023/09/04 02:34:23;;;;;;;;;;;24.90;57.40;;;;;;5053967;28;19931;-61
2023/09/04 02:36:50;;;;;;;;;;;24.80;57.30;;;;;;5053767;28;19994;-60
2023/09/04 02:39:17;;;;;;;;;;;24.90;57.30;;;;;;5069303;28;20377;-60
2023/09/04 02:41:44;;;;;;;;;;;24.90;57.30;;;;;;5042098;28;19986;-60
2023/09/04 02:44:11;;;;;;;;;;;24.90;57.30;;;;;;5045920;28;20398;-61
2023/09/04 02:46:37;;;;;;;;;;;24.90;57.30;;;;;;5026022;28;19968;-61
2023/09/04 02:49:04;;;;;;;;;;;24.90;57.30;;;;;;5053017;28;19959;-60
2023/09/04 02:51:31;;;;;;;;;;;24.90;57.20;;;;;;5053779;28;20428;-60
2023/09/04 02:53:58;;;;;;;;;;;24.90;57.20;;;;;;5043327;28;19971;-62
2023/09/04 02:56:25;;;;;;;;;;;24.90;57.20;;;;;;5053774;28;19925;-61
2023/09/04 02:58:52;;;;;;;;;;;24.90;57.20;;;;;;5032302;28;19964;-61
2023/09/04 03:01:19;;;;;;;;;;;24.90;57.20;;;;;;5050286;28;20393;-60
2023/09/04 03:03:46;;;;;;;;;;;24.90;57.20;;;;;;5043188;28;20009;-61
2023/09/04 03:06:13;;;;;;;;;;;24.90;57.20;;;;;;5040771;28;19929;-61
2023/09/04 03:08:40;;;;;;;;;;;24.90;57.20;;;;;;5052754;28;19925;-61
2023/09/04 03:11:09;;;;;;;;;;;24.90;57.20;;;;;;5053712;28;20012;-61
2023/09/04 03:13:37;;;;;;;;;;;24.90;57.20;;;;;;5053617;28;19925;-60
2023/09/04 03:16:08;;;;;;;;;;;24.90;57.20;;;;;;5051559;28;19960;-61
2023/09/04 03:18:35;;;;;;;;;;;24.90;57.30;;;;;;5044551;28;19929;-61
2023/09/04 03:21:02;;;;;;;;;;;24.90;57.30;;;;;;5044087;28;20012;-60
2023/09/04 03:23:29;;;;;;;;;;;24.80;57.20;;;;;;5049576;28;20015;-61
2023/09/04 03:25:56;;;;;;;;;;;24.80;57.30;;;;;;5052927;28;19925;-60
2023/09/04 03:28:23;;;;;;;;;;;24.80;57.30;;;;;;5039340;28;19965;-60
2023/09/04 03:30:51;;;;;;;;;;;24.80;57.30;;;;;;5053348;28;19975;-61
2023/09/04 03:33:18;;;;;;;;;;;24.80;57.30;;;;;;5053484;28;19932;-60
2023/09/04 03:35:44;;;;;;;;;;;24.80;57.30;;;;;;5040912;28;19925;-61
2023/09/04 03:38:12;;;;;;;;;;;24.80;57.40;;;;;;5039482;28;20000;-61
2023/09/04 03:40:39;;;;;;;;;;;24.80;57.40;;;;;;4998869;28;19980;-62
2023/09/04 03:43:05;;;;;;;;;;;24.80;57.40;;;;;;5032782;28;19929;-61
2023/09/04 03:45:33;;;;;;;;;;;24.80;57.40;;;;;;5042835;28;19936;-61
2023/09/04 03:48:00;;;;;;;;;;;24.80;57.40;;;;;;5033681;28;19979;-60
2023/09/04 03:50:27;;;;;;;;;;;24.80;57.40;;;;;;5053026;28;19925;-60
2023/09/04 03:52:54;;;;;;;;;;;24.80;57.30;;;;;;5026203;28;20329;-61
2023/09/04 03:55:22;;;;;;;;;;;24.80;57.40;;;;;;5045790;28;19925;-61
2023/09/04 03:57:51;;;;;;;;;;;24.80;57.40;;;;;;5032684;28;19991;-61
2023/09/04 04:00:18;;;;;;;;;;;24.80;57.40;;;;;;5048806;28;20373;-61
2023/09/04 04:02:47;;;;;;;;;;;24.80;57.40;;;;;;5052398;28;19948;-60
2023/09/04 04:05:14;;;;;;;;;;;24.80;57.40;;;;;;5051904;28;19925;-60
2023/09/04 04:07:42;;;;;;;;;;;24.80;57.30;;;;;;5032457;28;19925;-61
2023/09/04 04:10:09;;;;;;;;;;;24.80;57.40;;;;;;5047783;28;19968;-60
2023/09/04 04:12:37;;;;;;;;;;;24.80;57.40;;;;;;5072553;28;19975;-61
2023/09/04 04:15:06;;;;;;;;;;;24.80;57.40;;;;;;5063847;28;20355;-60
2023/09/04 04:17:34;;;;;;;;;;;24.80;57.40;;;;;;5043393;28;19936;-60
2023/09/04 04:20:03;;;;;;;;;;;24.80;57.30;;;;;;5050430;28;19931;-60
2023/09/04 04:22:30;;;;;;;;;;;24.70;57.30;;;;;;5052701;28;20362;-60
2023/09/04 04:24:57;;;;;;;;;;;24.80;57.30;;;;;;5060718;28;19925;-61
2023/09/04 04:27:24;;;;;;;;;;;24.80;57.30;;;;;;5072891;28;20467;-61
2023/09/04 04:29:53;;;;;;;;;;;24.80;57.30;;;;;;5047546;28;20015;-61
2023/09/04 04:32:20;;;;;;;;;;;24.80;57.30;;;;;;5052013;28;19978;-61
2023/09/04 04:34:48;;;;;;;;;;;24.80;57.20;;;;;;5057372;28;19983;-61
2023/09/04 04:37:15;;;;;;;;;;;24.80;57.20;;;;;;5057839;28;20020;-60
2023/09/04 04:39:42;;;;;;;;;;;24.70;57.20;;;;;;5059847;28;20373;-61
2023/09/04 04:42:09;;;;;;;;;;;24.70;57.20;;;;;;5056827;28;19986;-60
2023/09/04 04:44:36;;;;;;;;;;;24.60;57.20;;;;;;5061903;28;19939;-61
2023/09/04 04:47:03;;;;;;;;;;;24.40;57.50;;;;;;5056153;28;19933;-60
2023/09/04 04:49:30;;;;;;;;;;;24.20;56.90;;;;;;5062655;28;19931;-61
2023/09/04 04:51:57;;;;;;;;;;;23.90;55.50;;;;;;5075864;28;19924;-60
2023/09/04 04:54:24;;;;;;;;;;;23.60;53.60;;;;;;5074462;28;20292;-60
2023/09/04 04:56:52;;;;;;;;;;;23.30;52.10;;;;;;5076094;28;20373;-61
2023/09/04 04:59:18;;;;;;;;;;;23.10;52.10;;;;;;5083089;28;20437;-61
2023/09/04 05:01:45;;;;;;;;;;;22.80;50.40;;;;;;5036084;28;19925;-61
2023/09/04 05:04:12;;;;;;;;;;;22.50;50.10;;;;;;5056803;28;20377;-61
2023/09/04 05:06:39;;;;;;;;;;;22.30;49.60;;;;;;5061571;28;19931;-60
2023/09/04 05:09:07;;;;;;;;;;;21.90;50.20;;;;;;5041195;28;19930;-61
2023/09/04 05:11:34;;;;;;;;;;;21.70;49.00;;;;;;5053950;28;19929;-62
2023/09/04 05:14:02;;;;;;;;;;;21.40;51.10;;;;;;5053714;28;19925;-62
2023/09/04 05:16:29;;;;;;;;;;;21.10;50.10;;;;;;5049509;28;19959;-64
2023/09/04 05:18:57;;;;;;;;;;;21.00;50.80;;;;;;5051255;28;19975;-64
2023/09/04 05:21:25;;;;;;;;;;;20.70;52.20;;;;;;5051547;28;19929;-63
2023/09/04 05:23:52;;;;;;;;;;;20.50;52.00;;;;;;5051706;28;19988;-62
2023/09/04 05:26:19;;;;;;;;;;;20.30;51.50;;;;;;5053833;28;20487;-62
2023/09/04 05:28:46;;;;;;;;;;;20.10;51.40;;;;;;5052548;28;19925;-65
2023/09/04 05:31:13;;;;;;;;;;;20.00;51.70;;;;;;5050711;28;20052;-63
2023/09/04 05:33:40;;;;;;;;;;;19.80;51.90;;;;;;5047429;28;19999;-61
2023/09/04 05:36:09;;;;;;;;;;;19.70;52.80;;;;;;5046802;28;20010;-62
2023/09/04 05:38:36;;;;;;;;;;;19.50;53.30;;;;;;5040593;28;19932;-61
2023/09/04 05:41:03;;;;;;;;;;;19.50;53.50;;;;;;5046269;28;19936;-63
2023/09/04 05:43:30;;;;;;;;;;;19.40;53.90;;;;;;5048504;28;19933;-62
2023/09/04 05:45:58;;;;;;;;;;;19.30;54.90;;;;;;5048262;28;19925;-61
2023/09/04 05:48:25;;;;;;;;;;;19.30;54.20;;;;;;5036811;28;20439;-61
2023/09/04 05:50:52;;;;;;;;;;;19.20;53.90;;;;;;5039501;28;19924;-60
2023/09/04 05:53:19;;;;;;;;;;;19.20;54.30;;;;;;5046216;28;19933;-60
2023/09/04 05:56:04;;;;;;;;;;;19.20;54.60;;;;;;5048313;28;21846;-60
2023/09/04 05:58:31;;;;;;;;;;;19.10;53.70;;;;;;5046505;28;19951;-60
2023/09/04 06:00:59;;;;;;;;;;;19.10;54.00;;;;;;5049019;28;19939;-59
2023/09/04 06:03:26;;;;;;;;;;;19.20;55.40;;;;;;5046721;28;19933;-60
2023/09/04 06:05:53;;;;;;;;;;;19.20;55.20;;;;;;5046552;28;19932;-60
2023/09/04 06:08:21;;;;;;;;;;;19.20;54.40;;;;;;5040923;28;19935;-61
2023/09/04 06:10:49;;;;;;;;;;;19.20;55.10;;;;;;5046787;28;20035;-60
2023/09/04 06:13:16;;;;;;;;;;;19.20;54.20;;;;;;5045235;28;19925;-61
2023/09/04 06:15:43;;;;;;;;;;;19.20;53.80;;;;;;5043000;28;19928;-61
2023/09/04 06:18:10;;;;;;;;;;;19.10;54.00;;;;;;5047642;28;20396;-61
2023/09/04 06:20:37;;;;;;;;;;;19.10;54.20;;;;;;5043440;28;20389;-61
2023/09/04 06:23:04;;;;;;;;;;;19.10;53.10;;;;;;5045408;28;19971;-61
2023/09/04 06:25:32;;;;;;;;;;;19.00;54.00;;;;;;5046573;28;19924;-60
2023/09/04 06:27:59;;;;;;;;;;;19.00;54.80;;;;;;5046153;28;19925;-60
2023/09/04 06:30:26;;;;;;;;;;;19.00;54.10;;;;;;5042731;28;19929;-62
2023/09/04 06:32:54;;;;;;;;;;;19.00;53.30;;;;;;5040623;28;19944;-62
2023/09/04 06:35:21;;;;;;;;;;;19.00;53.70;;;;;;5044459;28;19959;-63
2023/09/04 06:37:49;;;;;;;;;;;18.90;54.60;;;;;;5041397;28;20051;-64
2023/09/04 06:40:16;;;;;;;;;;;19.00;54.30;;;;;;5037734;28;20024;-63
2023/09/04 06:42:43;;;;;;;;;;;19.00;54.00;;;;;;5036062;28;20027;-64
2023/09/04 06:45:11;;;;;;;;;;;19.00;53.90;;;;;;5040207;28;19936;-65
2023/09/04 06:47:38;;;;;;;;;;;19.00;54.90;;;;;;5033625;28;20020;-65
2023/09/04 06:50:06;;;;;;;;;;;19.00;53.40;;;;;;5036350;28;19933;-64
2023/09/04 06:52:33;;;;;;;;;;;19.00;53.40;;;;;;5035084;28;20027;-64
2023/09/04 06:55:00;;;;;;;;;;;19.00;54.70;;;;;;5044316;28;20032;-63
2023/09/04 06:57:27;;;;;;;;;;;19.00;53.90;;;;;;5033068;28;19932;-63
2023/09/04 06:59:57;;;;;;;;;;;18.90;54.80;;;;;;5069643;28;20019;-62
2023/09/04 07:02:25;;;;;;;;;;;18.90;57.50;;;;;;5041697;28;19960;-62
2023/09/04 07:04:53;;;;;;;;;;;18.90;56.70;;;;;;5033050;28;19937;-63
2023/09/04 07:07:20;;;;;;;;;;;18.80;56.90;;;;;;5034222;28;19932;-63
2023/09/04 07:09:48;;;;;;;;;;;18.80;57.40;;;;;;5034957;28;20012;-62
2023/09/04 07:12:15;;;;;;;;;;;18.80;58.00;;;;;;5033954;28;20077;-64
2023/09/04 07:14:42;;;;;;;;;;;18.70;58.20;;;;;;5035725;28;20461;-61
2023/09/04 07:17:09;;;;;;;;;;;18.70;56.10;;;;;;5044524;28;20735;-63
2023/09/04 07:19:37;;;;;;;;;;;18.70;57.20;;;;;;5045292;28;19929;-62
2023/09/04 07:22:05;;;;;;;;;;;18.70;57.90;;;;;;5041715;28;19957;-64
2023/09/04 07:24:32;;;;;;;;;;;18.70;58.10;;;;;;5048457;28;19964;-62
2023/09/04 07:26:59;;;;;;;;;;;18.70;59.00;;;;;;5042645;28;19938;-62
2023/09/04 07:29:26;;;;;;;;;;;18.70;58.60;;;;;;5043395;28;19937;-62
2023/09/04 07:31:55;;;;;;;;;;;18.70;58.60;;;;;;5044790;28;19928;-63
2023/09/04 07:34:23;;;;;;;;;;;18.70;58.40;;;;;;5043402;28;19932;-63
2023/09/04 07:36:52;;;;;;;;;;;18.80;57.90;;;;;;5024055;28;19940;-63
2023/09/04 07:39:19;;;;;;;;;;;18.80;58.70;;;;;;5046839;28;20420;-64
2023/09/04 07:41:46;;;;;;;;;;;18.80;58.40;;;;;;5045901;28;19936;-64
2023/09/04 07:44:15;;;;;;;;;;;18.80;57.70;;;;;;5044878;28;19975;-63
2023/09/04 07:46:43;;;;;;;;;;;18.80;58.50;;;;;;5045059;28;20403;-63
2023/09/04 07:49:10;;;;;;;;;;;18.80;58.50;;;;;;5045766;28;20392;-63
2023/09/04 07:51:37;;;;;;;;;;;18.80;58.20;;;;;;5046686;28;20359;-64
2023/09/04 07:54:05;;;;;;;;;;;18.90;58.70;;;;;;5046747;28;19983;-64
2023/09/04 07:56:32;;;;;;;;;;;18.90;58.00;;;;;;5045389;28;19943;-62
2023/09/04 07:59:09;;;;;;;;;;;18.90;58.60;;;;;;5044099;28;19929;-62
2023/09/04 08:01:37;;;;;;;;;;;18.90;59.30;;;;;;5058410;28;19937;-62
2023/09/04 08:04:04;;;;;;;;;;;18.90;58.60;;;;;;5041929;28;19960;-63
2023/09/04 08:06:31;;;;;;;;;;;18.90;59.10;;;;;;5045272;28;19933;-63
2023/09/04 08:09:04;;;;;;;;;;;18.90;59.20;;;;;;5047200;28;19924;-63
2023/09/04 08:11:32;;;;;;;;;;;19.00;59.80;;;;;;5048395;28;19936;-63
2023/09/04 08:13:58;;;;;;;;;;;19.10;58.50;;;;;;5047170;28;20015;-64
2023/09/04 08:16:25;;;;;;;;;;;19.00;58.50;;;;;;5048885;28;19924;-64
2023/09/04 08:18:52;;;;;;;;;;;19.10;59.70;;;;;;5044247;28;19932;-62
2023/09/04 08:21:20;;;;;;;;;;;19.10;58.80;;;;;;5045469;28;20301;-63
2023/09/04 08:23:47;;;;;;;;;;;19.20;59.50;;;;;;5044273;28;19932;-63
2023/09/04 08:26:14;;;;;;;;;;;19.20;59.00;;;;;;5043118;28;19932;-63
2023/09/04 08:28:42;;;;;;;;;;;19.20;58.80;;;;;;5045945;28;19932;-64
2023/09/04 08:31:10;;;;;;;;;;;19.20;59.10;;;;;;5047716;28;20394;-63
2023/09/04 08:33:38;;;;;;;;;;;19.20;58.00;;;;;;5052046;28;19964;-63
2023/09/04 08:36:05;;;;;;;;;;;19.30;58.60;;;;;;5048586;28;19986;-64
2023/09/04 08:38:32;;;;;;;;;;;19.30;58.40;;;;;;5045940;28;20039;-64
2023/09/04 08:41:00;;;;;;;;;;;19.30;59.30;;;;;;5046918;28;19932;-64
2023/09/04 08:43:30;;;;;;;;;;;19.40;58.70;;;;;;5050119;28;19932;-63
2023/09/04 08:46:02;;;;;;;;;;;19.40;59.30;;;;;;5048131;28;20003;-62
2023/09/04 08:48:37;;;;;;;;;;;19.40;59.70;;;;;;5049411;28;19924;-61
2023/09/04 08:51:04;;;;;;;;;;;19.40;59.40;;;;;;5043618;28;19939;-61
2023/09/04 08:53:31;;;;;;;;;;;19.40;59.50;;;;;;5047671;28;19928;-60
2023/09/04 08:55:59;;;;;;;;;;;19.40;58.10;;;;;;5047807;28;20303;-62
2023/09/04 08:58:26;;;;;;;;;;;19.50;58.70;;;;;;5047284;28;19972;-64
2023/09/04 09:00:54;;;;;;;;;;;19.50;59.20;;;;;;5048502;28;19982;-64
2023/09/04 09:03:21;;;;;;;;;;;19.50;59.20;;;;;;5044377;28;19979;-65
2023/09/04 09:05:49;;;;;;;;;;;19.50;59.20;;;;;;5042549;28;19933;-61
2023/09/04 09:08:16;;;;;;;;;;;19.50;58.50;;;;;;5046460;28;20019;-63
2023/09/04 09:10:46;;;;;;;;;;;19.50;59.00;;;;;;5048710;28;19933;-63
2023/09/04 09:13:13;;;;;;;;;;;19.60;59.40;;;;;;5047935;28;20381;-63
2023/09/04 09:15:41;;;;;;;;;;;19.50;59.20;;;;;;5051067;28;19925;-62
2023/09/04 09:18:08;;;;;;;;;;;19.60;58.00;;;;;;5046794;28;19979;-62
2023/09/04 09:20:38;;;;;;;;;;;19.60;58.40;;;;;;5042531;28;19936;-63
2023/09/04 09:23:05;;;;;;;;;;;19.60;58.50;;;;;;5042511;28;19925;-62
2023/09/04 09:25:33;;;;;;;;;;;19.60;57.70;;;;;;5047057;28;19975;-62
2023/09/04 09:28:01;;;;;;;;;;;19.70;57.80;;;;;;5045727;28;20038;-63
2023/09/04 09:30:29;;;;;;;;;;;19.70;57.90;;;;;;5048085;28;19933;-63
2023/09/04 09:32:56;;;;;;;;;;;19.70;57.80;;;;;;5044372;28;19928;-67
2023/09/04 09:35:23;;;;;;;;;;;19.80;58.70;;;;;;5048242;28;19932;-62
2023/09/04 09:37:52;;;;;;;;;;;19.80;59.00;;;;;;5043784;28;19929;-63
2023/09/04 09:40:20;;;;;;;;;;;19.80;58.20;;;;;;5043679;28;19933;-63
2023/09/04 09:42:48;;;;;;;;;;;19.90;57.80;;;;;;5046852;28;19932;-63
2023/09/04 09:45:15;;;;;;;;;;;19.90;57.90;;;;;;5049734;28;19929;-61
2023/09/04 09:47:42;;;;;;;;;;;20.00;56.80;;;;;;5048112;28;19943;-62
2023/09/04 09:50:09;;;;;;;;;;;20.00;58.30;;;;;;5046693;28;19939;-65
2023/09/04 09:52:36;;;;;;;;;;;20.00;57.80;;;;;;5047826;28;19932;-65
2023/09/04 09:55:05;;;;;;;;;;;20.00;56.60;;;;;;5048556;28;20654;-65
2023/09/04 09:57:33;;;;;;;;;;;20.00;55.20;;;;;;5052210;28;19968;-64
2023/09/04 10:00:00;;;;;;;;;;;20.00;54.70;;;;;;5049857;28;20023;-64
2023/09/04 10:02:27;;;;;;;;;;;20.00;54.20;;;;;;5049988;28;19933;-64
2023/09/04 10:04:55;;;;;;;;;;;20.00;54.40;;;;;;5045910;28;19929;-64
2023/09/04 10:07:27;;;;;;;;;;;20.00;53.70;;;;;;5052544;28;19925;-64
2023/09/04 10:10:03;;;;;;;;;;;20.00;53.70;;;;;;5051635;28;19925;-64
2023/09/04 10:12:34;;;;;;;;;;;20.00;54.20;;;;;;5046815;28;19936;-65
2023/09/04 10:15:05;;;;;;;;;;;19.80;53.80;;;;;;5049064;28;19925;-64
2023/09/04 10:17:38;;;;;;;;;;;19.80;54.00;;;;;;5049184;28;19932;-66
2023/09/04 10:20:06;;;;;;;;;;;19.80;53.80;;;;;;5048337;28;19982;-66
2023/09/04 10:22:36;;;;;;;;;;;19.80;53.60;;;;;;5048770;28;19936;-64
2023/09/04 10:25:27;;;;;;;;;;;19.70;53.80;;;;;;5048815;28;19959;-66
2023/09/04 10:27:59;;;;;;;;;;;19.70;53.80;;;;;;5050844;28;20024;-66
2023/09/04 10:30:37;;;;;;;;;;;19.70;54.20;;;;;;5047197;28;19939;-67
2023/09/04 10:33:05;;;;;;;;;;;19.70;54.40;;;;;;5044114;28;19971;-66
2023/09/04 10:35:32;;;;;;;;;;;19.60;54.60;;;;;;5045639;28;20044;-65
2023/09/04 10:38:00;;;;;;;;;;;19.70;54.20;;;;;;5048273;28;19925;-66
2023/09/04 10:40:28;;;;;;;;;;;19.70;54.40;;;;;;5047220;28;20014;-65
2023/09/04 10:43:03;;;;;;;;;;;19.70;54.60;;;;;;5048597;28;20035;-66
2023/09/04 10:45:31;;;;;;;;;;;19.60;54.40;;;;;;5049147;28;20281;-66
2023/09/04 10:48:01;;;;;;;;;;;19.60;54.90;;;;;;5046687;28;19933;-66
2023/09/04 10:50:34;;;;;;;;;;;19.50;55.10;;;;;;5048158;28;20385;-66
2023/09/04 10:53:04;;;;;;;;;;;19.40;55.00;;;;;;5048290;28;19929;-66
2023/09/04 10:55:31;;;;;;;;;;;19.40;55.20;;;;;;5044642;28;19925;-63
2023/09/04 10:58:00;;;;;;;;;;;19.50;54.70;;;;;;5043659;28;19932;-63
2023/09/04 11:00:28;;;;;;;;;;;19.50;55.10;;;;;;5046119;28;19986;-62
2023/09/04 11:02:56;;;;;;;;;;;19.60;55.20;;;;;;5047799;28;19932;-64
2023/09/04 11:05:24;;;;;;;;;;;19.60;55.00;;;;;;5048717;28;19983;-63
2023/09/04 11:07:51;;;;;;;;;;;19.60;55.90;;;;;;5054525;28;19979;-62
2023/09/04 11:10:32;;;;;;;;;;;19.70;56.40;;;;;;5046132;28;20008;-62
2023/09/04 11:12:59;;;;;;;;;;;19.70;55.20;;;;;;5046861;28;19982;-62
2023/09/04 11:15:28;;;;;;;;;;;19.80;55.40;;;;;;5050623;28;20204;-62
2023/09/04 11:17:55;;;;;;;;;;;19.80;54.70;;;;;;5049322;28;19989;-63
2023/09/04 11:20:27;;;;;;;;;;;19.80;55.10;;;;;;5049236;28;19951;-62
2023/09/04 11:22:55;;;;;;;;;;;19.80;54.90;;;;;;5046684;28;19929;-62
2023/09/04 11:25:23;;;;;;;;;;;19.80;54.40;;;;;;5043078;28;19936;-67
2023/09/04 11:27:50;;;;;;;;;;;19.80;54.90;;;;;;5042718;28;19936;-62
2023/09/04 11:30:17;;;;;;;;;;;19.80;55.00;;;;;;5054309;28;19936;-62
2023/09/04 11:32:44;;;;;;;;;;;19.70;55.60;;;;;;5047651;28;19960;-61
2023/09/04 11:35:12;;;;;;;;;;;19.70;56.10;;;;;;5051745;28;19928;-61
2023/09/04 11:37:40;;;;;;;;;;;19.70;55.40;;;;;;5048661;28;19974;-61
2023/09/04 11:40:08;;;;;;;;;;;19.70;56.30;;;;;;5048819;28;19979;-60
2023/09/04 11:42:37;;;;;;;;;;;19.70;57.20;;;;;;5047695;28;19929;-62
2023/09/04 11:45:04;;;;;;;;;;;19.70;55.60;;;;;;5049526;28;19937;-62
2023/09/04 11:47:31;;;;;;;;;;;19.70;56.50;;;;;;5044997;28;19925;-63
2023/09/04 11:49:58;;;;;;;;;;;19.70;56.60;;;;;;5045835;28;19972;-63
2023/09/04 11:52:26;;;;;;;;;;;19.70;55.90;;;;;;5043375;28;19929;-64
2023/09/04 11:54:54;;;;;;;;;;;19.80;55.70;;;;;;5046800;28;20338;-64
2023/09/04 11:57:21;;;;;;;;;;;19.80;55.40;;;;;;5048721;28;19932;-62
2023/09/04 11:59:48;;;;;;;;;;;19.80;56.70;;;;;;5045793;28;19928;-62
2023/09/04 12:02:15;;;;;;;;;;;19.80;56.10;;;;;;5046392;28;20020;-61
2023/09/04 12:04:42;;;;;;;;;;;19.80;56.30;;;;;;5047578;28;19967;-61
2023/09/04 12:07:12;;;;;;;;;;;19.90;56.10;;;;;;5045172;28;19933;-62
2023/09/04 12:09:40;;;;;;;;;;;19.90;56.00;;;;;;5049483;28;19933;-62
2023/09/04 12:12:07;;;;;;;;;;;19.90;55.50;;;;;;5061991;28;19929;-62
2023/09/04 12:14:35;;;;;;;;;;;19.90;54.90;;;;;;5048264;28;19925;-66
2023/09/04 12:17:08;;;;;;;;;;;19.90;55.30;;;;;;5044843;28;19925;-64
2023/09/04 12:19:35;;;;;;;;;;;19.90;56.30;;;;;;5046165;28;19971;-61
2023/09/04 12:22:11;;;;;;;;;;;20.00;55.20;;;;;;5046826;28;19967;-63
2023/09/04 12:24:38;;;;;;;;;;;19.90;56.00;;;;;;5045379;28;20047;-63
2023/09/04 12:27:05;;;;;;;;;;;19.90;56.60;;;;;;5044897;28;20358;-64
2023/09/04 12:29:33;;;;;;;;;;;19.90;56.30;;;;;;5045150;28;20434;-62
2023/09/04 12:32:01;;;;;;;;;;;19.90;56.40;;;;;;5045083;28;19929;-61
2023/09/04 12:34:28;;;;;;;;;;;20.00;55.60;;;;;;5048567;28;19941;-66
2023/09/04 12:36:55;;;;;;;;;;;20.00;56.60;;;;;;5042980;28;19928;-63
2023/09/04 12:39:23;;;;;;;;;;;20.00;56.30;;;;;;5045147;28;19931;-61
2023/09/04 12:42:00;;;;;;;;;;;20.10;55.80;;;;;;5045536;28;20165;-63
2023/09/04 12:44:27;;;;;;;;;;;20.10;55.80;;;;;;5046296;28;19983;-61
2023/09/04 12:46:54;;;;;;;;;;;20.20;55.80;;;;;;5046481;28;20020;-61
2023/09/04 12:49:22;;;;;;;;;;;20.10;55.00;;;;;;5046418;28;19932;-62
2023/09/04 12:51:49;;;;;;;;;;;20.20;55.90;;;;;;5044916;28;20349;-62
2023/09/04 12:54:16;;;;;;;;;;;20.20;55.20;;;;;;5053080;28;19944;-64
2023/09/04 12:56:43;;;;;;;;;;;20.20;54.40;;;;;;5050823;28;19964;-62
2023/09/04 12:59:10;;;;;;;;;;;20.20;55.20;;;;;;5051222;28;20031;-63
2023/09/04 13:01:37;;;;;;;;;;;20.20;55.50;;;;;;5049049;28;20056;-62
2023/09/04 13:04:06;;;;;;;;;;;20.20;55.40;;;;;;5047447;28;19940;-62
2023/09/04 13:06:33;;;;;;;;;;;20.20;55.60;;;;;;5048906;28;19933;-63
2023/09/04 13:09:00;;;;;;;;;;;20.10;55.90;;;;;;5047424;28;19936;-65
2023/09/04 13:11:27;;;;;;;;;;;20.10;55.50;;;;;;5045277;28;19972;-62
2023/09/04 13:13:55;;;;;;;;;;;20.10;55.40;;;;;;5045885;28;20290;-61
2023/09/04 13:16:23;;;;;;;;;;;20.10;55.10;;;;;;5047994;28;19955;-62
2023/09/04 13:18:50;;;;;;;;;;;20.10;54.90;;;;;;5047682;28;20019;-63
2023/09/04 13:21:17;;;;;;;;;;;20.10;55.40;;;;;;5053045;28;19975;-61
2023/09/04 13:23:44;;;;;;;;;;;20.10;53.80;;;;;;5050054;28;20366;-60
2023/09/04 13:26:11;;;;;;;;;;;20.00;54.30;;;;;;5043378;28;19956;-61
2023/09/04 13:28:38;;;;;;;;;;;20.10;54.60;;;;;;5049656;28;19924;-60
2023/09/04 13:31:05;;;;;;;;;;;20.10;54.10;;;;;;5041069;28;19929;-61
2023/09/04 13:33:33;;;;;;;;;;;20.10;54.80;;;;;;5038257;28;19933;-60
2023/09/04 13:36:00;;;;;;;;;;;20.10;55.00;;;;;;5036317;28;20386;-61
2023/09/04 13:38:27;;;;;;;;;;;20.10;55.00;;;;;;5039176;28;19932;-60
2023/09/04 13:40:55;;;;;;;;;;;20.00;55.40;;;;;;5035647;28;19933;-60
2023/09/04 13:43:22;;;;;;;;;;;20.00;54.90;;;;;;5043716;28;20043;-60
2023/09/04 13:45:49;;;;;;;;;;;20.00;55.60;;;;;;5048122;28;20738;-60
2023/09/04 13:48:16;;;;;;;;;;;20.00;55.60;;;;;;5052735;28;19970;-60
2023/09/04 13:50:44;;;;;;;;;;;19.90;55.70;;;;;;5051330;28;20294;-59
2023/09/04 13:53:11;;;;;;;;;;;20.00;55.80;;;;;;5048570;28;20012;-59
2023/09/04 13:55:38;;;;;;;;;;;20.00;54.90;;;;;;5045312;28;19964;-59
2023/09/04 13:58:05;;;;;;;;;;;20.00;55.20;;;;;;5049819;28;19943;-59
2023/09/04 14:00:32;;;;;;;;;;;20.00;55.50;;;;;;5053891;28;19968;-59
2023/09/04 14:03:00;;;;;;;;;;;19.90;55.20;;;;;;5052001;28;19958;-60
2023/09/04 14:05:29;;;;;;;;;;;20.00;59.70;;;;;;5052495;28;19932;-59
2023/09/04 14:07:56;;;;;;;;;;;20.20;67.50;;;;;;5046097;28;19925;-60
2023/09/04 14:10:23;;;;;;;;;;;20.40;71.30;;;;;;5054948;28;20331;-61
2023/09/04 14:12:50;;;;;;;;;;;20.80;72.90;;;;;;5044328;28;19925;-61
2023/09/04 14:15:17;;;;;;;;;;;21.10;72.60;;;;;;5045420;28;19937;-61
2023/09/04 14:17:44;;;;;;;;;;;21.40;72.60;;;;;;5049231;28;20037;-62
2023/09/04 14:20:11;;;;;;;;;;;21.70;72.10;;;;;;5043356;28;19944;-62